createdAt,value
2022-08-07T00:02:37.253Z,101061.46
2022-08-07T00:04:54.830Z,101065.31
2022-08-07T00:07:24.037Z,101060.41
2022-08-07T00:10:19.140Z,101065.04
2022-08-07T00:12:57.662Z,101070.20
2022-08-07T00:15:36.073Z,101069.52
2022-08-07T00:18:24.139Z,101069.39
2022-08-07T00:20:57.567Z,101065.73
2022-08-07T00:23:35.058Z,101067.31
2022-08-07T00:26:18.661Z,101058.09
2022-08-07T00:28:56.508Z,101065.16
2022-08-07T00:31:37.994Z,101065.95
2022-08-07T00:34:12.982Z,101067.70
2022-08-07T00:36:44.739Z,101067.45
2022-08-07T00:39:16.571Z,101067.94
2022-08-07T00:42:01.459Z,101062.74
2022-08-07T00:44:38.359Z,101060.79
2022-08-07T00:48:07.729Z,101056.86
2022-08-07T00:50:19.154Z,101057.80
2022-08-07T00:52:50.359Z,101059.81
2022-08-07T00:55:46.598Z,101062.25
2022-08-07T00:58:10.821Z,101060.17
2022-08-07T01:00:53.737Z,101058.70
2022-08-07T01:03:56.150Z,101057.45
2022-08-07T01:06:11.391Z,101060.13
2022-08-07T01:08:53.078Z,101061.05
2022-08-07T01:12:09.179Z,101059.11
2022-08-07T01:14:11.969Z,101063.08
2022-08-07T01:16:47.396Z,101064.42
2022-08-07T01:19:20.510Z,101065.09
2022-08-07T01:21:55.517Z,101066.21
2022-08-07T01:24:30.716Z,101064.05
2022-08-07T01:27:01.375Z,101066.23
2022-08-07T01:29:34.271Z,101062.11
2022-08-07T01:32:12.378Z,101061.58
2022-08-07T01:34:47.223Z,101066.83
2022-08-07T01:37:17.476Z,101069.25
2022-08-07T01:39:50.985Z,101065.10
2022-08-07T01:42:38.057Z,101071.14
2022-08-07T01:45:17.841Z,101064.69
2022-08-07T01:48:19.710Z,101066.08
2022-08-07T01:50:40.247Z,101068.35
2022-08-07T01:53:20.777Z,101068.52
2022-08-07T01:55:58.551Z,101071.67
2022-08-07T01:58:33.108Z,101068.33
2022-08-07T02:02:02.103Z,101071.85
2022-08-07T02:04:36.767Z,101073.48
2022-08-07T02:07:09.764Z,101073.02
2022-08-07T02:09:52.782Z,101072.23
2022-08-07T02:12:29.203Z,101073.00
2022-08-07T02:15:06.003Z,101071.66
2022-08-07T02:17:49.741Z,101072.42
2022-08-07T02:20:28.536Z,101070.73
2022-08-07T02:23:01.895Z,101068.70
2022-08-07T02:26:30.388Z,101068.92
2022-08-07T02:28:25.527Z,101070.85
2022-08-07T02:30:59.262Z,101070.02
2022-08-07T02:33:32.763Z,101068.45
2022-08-07T02:36:29.121Z,101065.88
2022-08-07T02:38:56.769Z,101068.98
2022-08-07T02:41:33.306Z,101070.45
2022-08-07T02:44:07.011Z,101069.50
2022-08-07T02:46:37.624Z,101070.29
2022-08-07T02:49:28.706Z,101069.86
2022-08-07T02:52:01.878Z,101069.96
2022-08-07T02:54:33.837Z,101072.04
2022-08-07T02:57:06.571Z,101079.56
2022-08-07T02:59:38.744Z,101078.84
2022-08-07T03:02:10.492Z,101079.24
2022-08-07T03:04:43.258Z,101081.34
2022-08-07T03:07:17.630Z,101081.10
2022-08-07T03:09:52.675Z,101080.17
2022-08-07T03:12:30.913Z,101081.35
2022-08-07T03:15:07.703Z,101077.20
2022-08-07T03:17:53.487Z,101076.92
2022-08-07T03:20:26.732Z,101076.92
2022-08-07T03:22:58.763Z,101074.73
2022-08-07T03:25:32.575Z,101071.77
2022-08-07T03:28:37.971Z,101075.69
2022-08-07T03:31:24.683Z,101080.28
2022-08-07T03:34:00.972Z,101078.02
2022-08-07T03:36:33.208Z,101080.34
2022-08-07T03:39:09.992Z,101085.85
2022-08-07T03:41:42.616Z,101088.61
2022-08-07T03:44:31.772Z,101092.95
2022-08-07T03:47:12.986Z,101093.02
2022-08-07T03:49:53.488Z,101089.23
2022-08-07T03:52:27.386Z,101094.34
2022-08-07T03:55:07.077Z,101095.21
2022-08-07T03:59:05.042Z,101094.86
2022-08-07T04:00:33.878Z,101094.35
2022-08-07T04:03:05.284Z,101094.35
2022-08-07T04:05:40.509Z,101094.80
2022-08-07T04:08:18.463Z,101093.46
2022-08-07T04:10:54.044Z,101097.06
2022-08-07T04:14:10.311Z,101099.06
2022-08-07T04:16:30.855Z,101099.24
2022-08-07T04:19:12.319Z,101103.58
2022-08-07T04:21:59.666Z,101103.24
2022-08-07T04:24:39.131Z,101100.64
2022-08-07T04:27:20.475Z,101096.64
2022-08-07T04:30:01.391Z,101099.48
2022-08-07T04:32:39.754Z,101097.91
2022-08-07T04:35:15.822Z,101097.61
2022-08-07T04:38:03.169Z,101100.96
2022-08-07T04:40:34.038Z,101106.53
2022-08-07T04:43:03.869Z,101106.71
2022-08-07T04:46:12.416Z,101104.67
2022-08-07T04:48:52.180Z,101102.81
2022-08-07T04:51:48.450Z,101110.59
2022-08-07T04:54:41.197Z,101112.98
2022-08-07T04:58:26.200Z,101115.19
2022-08-07T05:00:57.519Z,101118.85
2022-08-07T05:04:20.771Z,101124.64
2022-08-07T05:06:59.195Z,101122.02
2022-08-07T05:09:46.582Z,101119.80
2022-08-07T05:12:30.574Z,101120.73
2022-08-07T05:15:23.485Z,101127.90
2022-08-07T05:18:08.659Z,101135.27
2022-08-07T05:20:43.823Z,101137.60
2022-08-07T05:23:31.049Z,101131.38
2022-08-07T05:26:18.810Z,101134.30
2022-08-07T05:28:56.556Z,101130.44
2022-08-07T05:31:34.728Z,101130.60
2022-08-07T05:34:10.749Z,101130.90
2022-08-07T05:36:43.739Z,101125.95
2022-08-07T05:40:14.188Z,101124.88
2022-08-07T05:42:34.550Z,101126.20
2022-08-07T05:45:14.298Z,101125.39
2022-08-07T05:48:01.313Z,101127.10
2022-08-07T05:50:32.150Z,101128.03
2022-08-07T05:53:04.304Z,101129.25
2022-08-07T05:56:02.075Z,101134.29
2022-08-07T05:58:36.086Z,101140.48
2022-08-07T06:01:09.217Z,101140.35
2022-08-07T06:03:56.627Z,101141.62
2022-08-07T06:06:29.697Z,101146.02
2022-08-07T06:09:04.370Z,101145.77
2022-08-07T06:11:36.096Z,101144.37
2022-08-07T06:14:13.298Z,101141.70
2022-08-07T06:16:56.269Z,101143.45
2022-08-07T06:19:47.938Z,101144.52
2022-08-07T06:22:23.333Z,101142.17
2022-08-07T06:25:01.493Z,101141.81
2022-08-07T06:27:43.990Z,101146.48
2022-08-07T06:30:32.020Z,101145.98
2022-08-07T06:33:15.690Z,101147.80
2022-08-07T06:36:12.946Z,101148.67
2022-08-07T06:38:51.440Z,101152.40
2022-08-07T06:42:01.733Z,101155.58
2022-08-07T06:44:51.448Z,101155.86
2022-08-07T06:47:21.915Z,101160.47
2022-08-07T06:49:58.284Z,101158.54
2022-08-07T06:52:35.504Z,101157.11
2022-08-07T06:55:32.990Z,101155.34
2022-08-07T06:58:10.584Z,101152.58
2022-08-07T07:00:52.743Z,101154.29
2022-08-07T07:03:26.447Z,101149.09
2022-08-07T07:06:13.153Z,101148.77
2022-08-07T07:08:46.807Z,101149.98
2022-08-07T07:12:08.441Z,101150.48
2022-08-07T07:14:08.562Z,101144.72
2022-08-07T07:16:49.615Z,101141.55
2022-08-07T07:19:57.203Z,101141.00
2022-08-07T07:22:36.590Z,101145.41
2022-08-07T07:26:30.502Z,101143.20
2022-08-07T07:28:29.458Z,101134.83
2022-08-07T07:31:03.819Z,101134.91
2022-08-07T07:33:36.026Z,101132.13
2022-08-07T07:36:13.378Z,101128.96
2022-08-07T07:38:46.182Z,101130.15
2022-08-07T07:41:17.829Z,101125.41
2022-08-07T07:44:17.387Z,101123.62
2022-08-07T07:46:55.361Z,101123.15
2022-08-07T07:50:35.901Z,101119.27
2022-08-07T07:52:22.005Z,101115.42
2022-08-07T07:54:52.106Z,101118.75
2022-08-07T07:57:51.480Z,101118.37
2022-08-07T08:00:20.921Z,101118.73
2022-08-07T08:03:16.714Z,101117.81
2022-08-07T08:05:58.904Z,101115.77
2022-08-07T08:08:34.790Z,101113.89
2022-08-07T08:11:08.022Z,101116.33
2022-08-07T08:13:53.782Z,101114.06
2022-08-07T08:16:31.022Z,101115.27
2022-08-07T08:19:17.271Z,101118.23
2022-08-07T08:22:09.792Z,101120.80
2022-08-07T08:25:09.461Z,101115.11
2022-08-07T08:27:56.565Z,101118.42
2022-08-07T08:30:34.866Z,101118.54
2022-08-07T08:33:15.277Z,101115.08
2022-08-07T08:35:49.846Z,101117.45
2022-08-07T08:38:26.013Z,101110.78
2022-08-07T08:41:09.446Z,101113.28
2022-08-07T08:44:14.371Z,101114.47
2022-08-07T08:47:20.291Z,101107.64
2022-08-07T08:50:05.489Z,101109.41
2022-08-07T08:52:40.648Z,101114.98
2022-08-07T08:55:54.784Z,101110.98
2022-08-07T08:58:43.368Z,101114.26
2022-08-07T09:01:19.331Z,101114.36
2022-08-07T09:03:58.934Z,101118.08
2022-08-07T09:06:58.227Z,101123.30
2022-08-07T09:09:47.507Z,101114.59
2022-08-07T09:12:30.912Z,101116.48
2022-08-07T09:16:23.616Z,101111.55
2022-08-07T09:19:00.747Z,101107.00
2022-08-07T09:21:57.691Z,101105.15
2022-08-07T09:24:55.099Z,101101.32
2022-08-07T09:27:59.779Z,101104.99
2022-08-07T09:30:33.304Z,101100.02
2022-08-07T09:33:16.780Z,101092.58
2022-08-07T09:36:27.136Z,101092.30
2022-08-07T09:39:52.999Z,101090.96
2022-08-07T09:42:50.456Z,101095.52
2022-08-07T09:47:49.911Z,101087.27
2022-08-07T09:50:00.616Z,101085.45
2022-08-07T09:52:34.436Z,101076.93
2022-08-07T09:55:16.890Z,101072.01
2022-08-07T09:58:10.038Z,101069.98
2022-08-07T10:01:15.024Z,101072.55
2022-08-07T10:04:14.290Z,101070.67
2022-08-07T10:06:56.867Z,101071.25
2022-08-07T10:10:00.850Z,101065.98
2022-08-07T10:13:05.281Z,101065.69
2022-08-07T10:16:02.186Z,101062.35
2022-08-07T10:18:57.235Z,101063.36
2022-08-07T10:22:16.281Z,101059.56
2022-08-07T10:24:55.280Z,101055.37
2022-08-07T10:28:02.767Z,101050.80
2022-08-07T10:30:50.144Z,101047.40
2022-08-07T10:34:06.034Z,101044.08
2022-08-07T10:37:05.708Z,101040.80
2022-08-07T10:40:05.983Z,101033.05
2022-08-07T10:42:47.414Z,101030.39
2022-08-07T10:45:19.398Z,101028.98
2022-08-07T10:48:04.417Z,101034.27
2022-08-07T10:50:49.892Z,101030.58
2022-08-07T10:53:47.573Z,101019.95
2022-08-07T10:56:45.047Z,101022.23
2022-08-07T10:59:47.508Z,101015.83
2022-08-07T11:02:39.945Z,101011.95
2022-08-07T11:05:48.697Z,101006.33
2022-08-07T11:08:38.979Z,101007.48
2022-08-07T11:11:35.721Z,101004.13
2022-08-07T11:14:46.406Z,100998.44
2022-08-07T11:17:13.349Z,101003.54
2022-08-07T11:20:03.330Z,100998.55
2022-08-07T11:22:45.585Z,100986.44
2022-08-07T11:25:29.654Z,100987.80
2022-08-07T11:28:25.190Z,100989.04
2022-08-07T11:31:35.043Z,100988.14
2022-08-07T11:34:12.369Z,100986.47
2022-08-07T11:37:00.226Z,100983.41
2022-08-07T11:40:06.161Z,100979.75
2022-08-07T11:42:50.465Z,100976.60
2022-08-07T11:45:53.466Z,100972.62
2022-08-07T11:48:40.682Z,100973.79
2022-08-07T11:51:48.711Z,100973.23
2022-08-07T11:54:41.409Z,100966.30
2022-08-07T11:57:59.533Z,100968.54
2022-08-07T12:01:02.186Z,100962.84
2022-08-07T12:04:01.666Z,100959.95
2022-08-07T12:06:37.210Z,100957.92
2022-08-07T12:09:16.349Z,100962.86
2022-08-07T12:12:09.027Z,100959.51
2022-08-07T12:15:05.238Z,100957.68
2022-08-07T12:17:58.652Z,100960.09
2022-08-07T12:20:36.465Z,100954.54
2022-08-07T12:24:05.052Z,100949.41
2022-08-07T12:26:30.078Z,100947.13
2022-08-07T12:29:13.674Z,100948.34
2022-08-07T12:32:15.335Z,100941.63
2022-08-07T12:34:49.330Z,100940.38
2022-08-07T12:37:27.950Z,100937.13
2022-08-07T12:40:36.105Z,100932.70
2022-08-07T12:43:09.833Z,100929.58
2022-08-07T12:45:52.763Z,100927.14
2022-08-07T12:48:28.390Z,100925.27
2022-08-07T12:51:17.670Z,100918.02
2022-08-07T12:54:23.716Z,100913.88
2022-08-07T12:56:55.007Z,100911.91
2022-08-07T12:59:53.826Z,100913.95
2022-08-07T13:02:51.212Z,100912.94
2022-08-07T13:06:04.728Z,100905.67
2022-08-07T13:08:39.121Z,100900.32
2022-08-07T13:12:03.493Z,100896.93
2022-08-07T13:14:51.524Z,100893.71
2022-08-07T13:17:39.814Z,100890.21
2022-08-07T13:20:19.032Z,100889.89
2022-08-07T13:23:06.162Z,100887.07
2022-08-07T13:26:01.362Z,100883.51
2022-08-07T13:28:37.886Z,100876.33
2022-08-07T13:31:17.951Z,100873.58
2022-08-07T13:34:34.615Z,100872.22
2022-08-07T13:36:55.490Z,100872.69
2022-08-07T13:40:33.806Z,100870.10
2022-08-07T13:42:35.207Z,100867.29
2022-08-07T13:46:06.821Z,100865.29
2022-08-07T13:48:06.017Z,100857.08
2022-08-07T13:50:45.294Z,100853.70
2022-08-07T13:54:00.211Z,100849.02
2022-08-07T13:56:36.105Z,100844.62
2022-08-07T13:59:13.855Z,100843.19
2022-08-07T14:02:03.778Z,100839.81
2022-08-07T14:04:46.095Z,100837.21
2022-08-07T14:07:22.845Z,100834.00
2022-08-07T14:10:20.476Z,100833.84
2022-08-07T14:12:58.697Z,100830.93
2022-08-07T14:15:31.841Z,100823.84
2022-08-07T14:18:27.565Z,100825.23
2022-08-07T14:22:03.093Z,100821.61
2022-08-07T14:24:20.806Z,100819.05
2022-08-07T14:26:52.478Z,100816.76
2022-08-07T14:30:09.807Z,100815.91
2022-08-07T14:32:15.375Z,100807.13
2022-08-07T14:34:46.720Z,100811.41
2022-08-07T14:37:23.728Z,100805.92
2022-08-07T14:40:17.944Z,100802.45
2022-08-07T14:43:59.384Z,100803.71
2022-08-07T14:45:59.880Z,100800.02
2022-08-07T14:48:38.164Z,100802.86
2022-08-07T14:51:16.296Z,100802.88
2022-08-07T14:54:10.003Z,100794.88
2022-08-07T14:56:40.311Z,100795.76
2022-08-07T14:59:14.030Z,100799.08
2022-08-07T15:02:32.963Z,100791.13
2022-08-07T15:05:02.051Z,100793.80
2022-08-07T15:07:47.308Z,100791.48
2022-08-07T15:10:26.014Z,100791.02
2022-08-07T15:13:01.348Z,100789.83
2022-08-07T15:18:45.420Z,100786.18
2022-08-07T15:21:44.345Z,100785.48
2022-08-07T15:25:15.980Z,100787.29
2022-08-07T15:27:11.935Z,100786.55
2022-08-07T15:30:10.283Z,100783.56
2022-08-07T15:32:50.810Z,100781.19
2022-08-07T15:36:01.454Z,100775.47
2022-08-07T15:38:31.184Z,100772.14
2022-08-07T15:41:23.790Z,100771.08
2022-08-07T15:44:07.145Z,100772.73
2022-08-07T15:46:47.430Z,100770.04
2022-08-07T15:50:05.719Z,100768.84
2022-08-07T15:52:20.845Z,100766.70
2022-08-07T15:54:51.664Z,100762.81
2022-08-07T15:57:40.229Z,100760.69
2022-08-07T16:00:32.004Z,100761.27
2022-08-07T16:03:05.421Z,100759.45
2022-08-07T16:05:34.639Z,100758.92
2022-08-07T16:08:31.706Z,100754.61
2022-08-07T16:11:26.310Z,100750.55
2022-08-07T16:14:20.222Z,100754.43
2022-08-07T16:17:14.845Z,100753.27
2022-08-07T16:20:03.742Z,100748.77
2022-08-07T16:23:05.307Z,100747.41
2022-08-07T16:25:56.666Z,100749.55
2022-08-07T16:29:18.514Z,100745.09
2022-08-07T16:32:07.611Z,100747.84
2022-08-07T16:35:00.251Z,100748.02
2022-08-07T16:38:03.893Z,100749.27
2022-08-07T16:40:57.136Z,100743.98
2022-08-07T16:44:05.730Z,100748.23
2022-08-07T16:47:38.628Z,100743.23
2022-08-07T16:50:35.541Z,100746.75
2022-08-07T16:54:02.102Z,100743.66
2022-08-07T16:56:14.663Z,100744.96
2022-08-07T16:59:15.301Z,100742.82
2022-08-07T17:02:03.237Z,100746.91
2022-08-07T17:04:51.122Z,100742.55
2022-08-07T17:07:55.841Z,100739.70
2022-08-07T17:10:54.867Z,100742.93
2022-08-07T17:14:18.298Z,100742.52
2022-08-07T17:16:55.880Z,100747.64
2022-08-07T17:20:02.990Z,100747.96
2022-08-07T17:22:54.878Z,100750.73
2022-08-07T17:25:51.419Z,100752.70
2022-08-07T17:28:32.420Z,100750.83
2022-08-07T17:31:18.100Z,100755.69
2022-08-07T17:34:15.601Z,100756.92
2022-08-07T17:36:57.951Z,100757.17
2022-08-07T17:39:58.187Z,100759.23
2022-08-07T17:42:59.767Z,100758.05
2022-08-07T17:45:35.281Z,100756.02
2022-08-07T17:48:11.287Z,100754.18
2022-08-07T17:51:14.861Z,100757.28
2022-08-07T17:54:00.984Z,100766.30
2022-08-07T17:56:49.765Z,100766.70
2022-08-07T17:59:25.736Z,100770.23
2022-08-07T18:02:14.569Z,100775.27
2022-08-07T18:04:51.676Z,100769.85
2022-08-07T18:07:34.252Z,100771.13
2022-08-07T18:10:28.630Z,100776.01
2022-08-07T18:13:01.172Z,100777.11
2022-08-07T18:15:41.274Z,100774.14
2022-08-07T18:18:45.427Z,100775.74
2022-08-07T18:21:38.380Z,100777.78
2022-08-07T18:24:09.142Z,100779.64
2022-08-07T18:26:40.815Z,100786.66
2022-08-07T18:30:08.032Z,100788.14
2022-08-07T18:32:09.560Z,100795.06
2022-08-07T18:35:01.548Z,100796.55
2022-08-07T18:38:57.526Z,100797.50
2022-08-07T18:41:44.951Z,100793.39
2022-08-07T18:45:44.033Z,100802.29
2022-08-07T18:48:10.772Z,100801.98
2022-08-07T18:51:17.117Z,100810.01
2022-08-07T18:54:31.181Z,100812.30
2022-08-07T18:57:31.430Z,100818.52
2022-08-07T19:00:32.440Z,100817.96
2022-08-07T19:03:16.046Z,100819.89
2022-08-07T19:06:03.150Z,100822.17
2022-08-07T19:08:54.824Z,100822.70
2022-08-07T19:11:52.081Z,100830.55
2022-08-07T19:15:00.487Z,100829.77
2022-08-07T19:18:02.674Z,100835.55
2022-08-07T19:21:08.377Z,100840.45
2022-08-07T19:23:58.309Z,100844.25
2022-08-07T19:28:28.367Z,100844.95
2022-08-07T19:31:03.118Z,100847.38
2022-08-07T19:32:29.111Z,100839.94
2022-08-07T19:35:05.944Z,100840.95
2022-08-07T19:37:57.175Z,100848.25
2022-08-07T19:40:31.532Z,100849.05
2022-08-07T19:43:09.022Z,100852.05
2022-08-07T19:46:06.154Z,100852.08
2022-08-07T19:48:44.478Z,100847.34
2022-08-07T19:51:52.657Z,100845.58
2022-08-07T19:54:33.550Z,100845.77
2022-08-07T19:58:00.787Z,100844.79
2022-08-07T20:00:02.977Z,100843.42
2022-08-07T20:02:52.218Z,100843.18
2022-08-07T20:05:28.001Z,100841.95
2022-08-07T20:08:07.800Z,100842.27
2022-08-07T20:10:55.282Z,100849.83
2022-08-07T20:13:33.095Z,100855.16
2022-08-07T20:16:04.654Z,100858.90
2022-08-07T20:18:35.119Z,100859.06
2022-08-07T20:21:14.432Z,100860.65
2022-08-07T20:23:57.951Z,100860.64
2022-08-07T20:26:38.731Z,100854.73
2022-08-07T20:29:47.872Z,100857.15
2022-08-07T20:32:11.515Z,100856.56
2022-08-07T20:34:54.659Z,100857.91
2022-08-07T20:37:37.122Z,100858.44
2022-08-07T20:40:33.397Z,100859.92
2022-08-07T20:43:09.706Z,100859.33
2022-08-07T20:46:27.744Z,100859.09
2022-08-07T20:48:37.386Z,100862.36
2022-08-07T20:51:09.768Z,100861.56
2022-08-07T20:54:04.785Z,100862.40
2022-08-07T20:56:30.778Z,100861.30
2022-08-07T20:59:05.287Z,100861.67
2022-08-07T21:01:45.257Z,100856.98
2022-08-07T21:04:28.852Z,100854.69
2022-08-07T21:07:04.008Z,100855.87
2022-08-07T21:09:52.784Z,100855.70
2022-08-07T21:12:31.144Z,100852.81
2022-08-07T21:15:03.358Z,100855.77
2022-08-07T21:18:03.662Z,100855.27
2022-08-07T21:20:29.788Z,100856.86
2022-08-07T21:23:08.019Z,100856.19
2022-08-07T21:25:44.846Z,100857.83
2022-08-07T21:28:58.248Z,100863.02
2022-08-07T21:32:42.319Z,100862.04
2022-08-07T21:35:02.406Z,100866.25
2022-08-07T21:37:58.971Z,100867.02
2022-08-07T21:40:50.230Z,100869.13
2022-08-07T21:43:55.409Z,100872.36
2022-08-07T21:46:36.739Z,100872.29
2022-08-07T21:49:18.126Z,100871.42
2022-08-07T21:52:32.845Z,100866.61
2022-08-07T21:55:28.146Z,100871.11
2022-08-07T21:58:51.272Z,100871.27
2022-08-07T22:02:11.246Z,100877.69
2022-08-07T22:04:53.950Z,100879.38
2022-08-07T22:07:35.744Z,100878.26
2022-08-07T22:10:20.939Z,100881.23
2022-08-07T22:13:02.757Z,100881.33
2022-08-07T22:16:38.902Z,100878.88
2022-08-07T22:19:00.953Z,100882.15
2022-08-07T22:22:05.011Z,100881.39
2022-08-07T22:25:03.470Z,100878.69
2022-08-07T22:28:07.812Z,100884.06
2022-08-07T22:30:41.533Z,100885.75
2022-08-07T22:33:15.174Z,100882.91
2022-08-07T22:36:04.886Z,100880.73
2022-08-07T22:38:48.742Z,100877.20
2022-08-07T22:42:03.958Z,100872.98
2022-08-07T22:44:25.098Z,100875.30
2022-08-07T22:47:27.081Z,100870.94
2022-08-07T22:49:58.904Z,100873.01
2022-08-07T22:52:43.512Z,100871.57
2022-08-07T22:55:29.949Z,100869.52
2022-08-07T22:58:16.920Z,100870.88
2022-08-07T23:01:09.119Z,100869.85
2022-08-07T23:03:58.919Z,100868.27
2022-08-07T23:06:50.608Z,100866.73
2022-08-07T23:10:04.906Z,100869.48
2022-08-07T23:13:05.168Z,100866.35
2022-08-07T23:16:07.181Z,100865.70
2022-08-07T23:19:48.230Z,100861.04
2022-08-07T23:22:32.873Z,100860.77
2022-08-07T23:25:28.166Z,100858.89
2022-08-07T23:28:22.073Z,100857.47
2022-08-07T23:31:06.474Z,100858.52
2022-08-07T23:34:34.504Z,100858.23
2022-08-07T23:36:43.259Z,100855.97
2022-08-07T23:39:27.771Z,100855.05
2022-08-07T23:42:24.290Z,100858.05
2022-08-07T23:45:06.799Z,100860.08
2022-08-07T23:48:07.598Z,100860.53
2022-08-07T23:50:54.840Z,100863.98
2022-08-07T23:53:51.800Z,100860.20
2022-08-07T23:56:34.862Z,100860.56
